PROFILE

 METAR AND TAF INFORMATION
ADDS - METARS form results

(0553 UTC 19 July 2019)
http://aviationweather.gov/metar/data/
 
TAF MMAA 190505Z 1906/2012 34005KT 5SM HZ SCT100 BKN250 TX32/1919Z TN26/1912Z FM191800 23010KT P6SM SCT015 BKN100 BKN250 PROB40 1923/2003 5SM TSRA BKN015CB FM200600 34005KT P6SM SCT015 SCT100 BKN250 

 AIRPORT MAP

 RUNWAY INFORMATION
Runway 06 Runway length 5579 ft Runway width 115 ft
Runway elevation 11 ft Runway displaced threshold 0 ft Runway heading 67
Runway 24 Runway length 5579 ft Runway width 115 ft
Runway elevation 11 ft Runway displaced threshold 0 ft Runway heading 247
Runway 10 Runway length 10832 ft Runway width 148 ft
Runway elevation 13 ft Runway displaced threshold 0 ft Runway heading 108
Runway 28 Runway length 10832 ft Runway width 148 ft
Runway elevation 13 ft Runway displaced threshold 0 ft Runway heading 288

 AIRPORT FREQUENCIES
Type APP Name ACAPULCO A Frequency 119.9 MHZ
Type ATIS Name ATIS Frequency 115.9 MHZ
Type TWR Name ACAPULCO T Frequency 118.5 MHZ

 AIRPORT NEAR NAVIGATION AIDS
Type VOR-DME Name Acapulco Frequency 115900 KHZ